Terminal Aerodrome Forecast
Issued by NWS

Current Version | Previous Version | Text Only | Print | Product List | Glossary On
Versions: 1 2 3 4 5 6 7 8 9 10 11 12 13 14 15 16 17 18 19 20 21 22 23 24
000
FTUS42 KTAE 041700
TAFDHN
TAF
KDHN 041725Z 0418/0518 18009KT P6SM SCT016 BKN040
     FM050100 19007KT P6SM OVC007
     FM050300 20008KT 4SM BR OVC004
     FM050600 19008KT 1 1/2SM BR OVC001
     FM051600 30012KT 4SM BR OVC007=

USA.gov is the U.S. government's official web portal to all federal, state and local government web resources and services.